sensor_id;sensor_type;location;lat;lon;timestamp;P1;durP1;ratioP1;P2;durP2;ratioP2
4933;SDS011;2482;49.154;8.254;2023-03-01T00:01:38;11.90;;;7.40;;
4933;SDS011;2482;49.154;8.254;2023-03-01T00:04:05;11.27;;;7.47;;
4933;SDS011;2482;49.154;8.254;2023-03-01T00:06:32;11.50;;;7.90;;
4933;SDS011;2482;49.154;8.254;2023-03-01T00:08:59;11.77;;;8.27;;
4933;SDS011;2482;49.154;8.254;2023-03-01T00:11:27;11.80;;;8.90;;
4933;SDS011;2482;49.154;8.254;2023-03-01T00:13:58;11.63;;;7.93;;
4933;SDS011;2482;49.154;8.254;2023-03-01T00:16:32;10.60;;;7.70;;
4933;SDS011;2482;49.154;8.254;2023-03-01T00:19:05;13.17;;;8.30;;
4933;SDS011;2482;49.154;8.254;2023-03-01T00:21:34;15.13;;;8.63;;
4933;SDS011;2482;49.154;8.254;2023-03-01T00:24:02;9.57;;;7.60;;
4933;SDS011;2482;49.154;8.254;2023-03-01T00:26:29;13.97;;;8.77;;
4933;SDS011;2482;49.154;8.254;2023-03-01T00:28:57;14.07;;;8.73;;
4933;SDS011;2482;49.154;8.254;2023-03-01T00:31:26;12.97;;;8.50;;
4933;SDS011;2482;49.154;8.254;2023-03-01T00:33:57;13.47;;;8.60;;
4933;SDS011;2482;49.154;8.254;2023-03-01T00:36:32;13.47;;;8.77;;
4933;SDS011;2482;49.154;8.254;2023-03-01T00:39:03;11.97;;;7.83;;
4933;SDS011;2482;49.154;8.254;2023-03-01T00:41:34;12.13;;;8.27;;
4933;SDS011;2482;49.154;8.254;2023-03-01T00:44:01;13.10;;;8.23;;
4933;SDS011;2482;49.154;8.254;2023-03-01T00:46:28;15.03;;;8.80;;
4933;SDS011;2482;49.154;8.254;2023-03-01T00:48:57;9.80;;;7.70;;
4933;SDS011;2482;49.154;8.254;2023-03-01T00:51:26;10.87;;;8.20;;
4933;SDS011;2482;49.154;8.254;2023-03-01T00:53:55;14.60;;;9.10;;
4933;SDS011;2482;49.154;8.254;2023-03-01T00:56:27;12.97;;;8.40;;
4933;SDS011;2482;49.154;8.254;2023-03-01T00:58:55;14.03;;;8.50;;
4933;SDS011;2482;49.154;8.254;2023-03-01T01:01:24;11.40;;;8.10;;
4933;SDS011;2482;49.154;8.254;2023-03-01T01:04:01;12.33;;;7.77;;
4933;SDS011;2482;49.154;8.254;2023-03-01T01:06:33;12.73;;;8.03;;
4933;SDS011;2482;49.154;8.254;2023-03-01T01:09:04;10.90;;;7.37;;
4933;SDS011;2482;49.154;8.254;2023-03-01T01:11:33;12.40;;;8.20;;
4933;SDS011;2482;49.154;8.254;2023-03-01T01:14:03;13.63;;;8.10;;
4933;SDS011;2482;49.154;8.254;2023-03-01T01:16:30;12.43;;;8.30;;
4933;SDS011;2482;49.154;8.254;2023-03-01T01:18:58;11.67;;;8.03;;
4933;SDS011;2482;49.154;8.254;2023-03-01T01:21:25;13.83;;;8.30;;
4933;SDS011;2482;49.154;8.254;2023-03-01T01:23:53;10.97;;;8.03;;
4933;SDS011;2482;49.154;8.254;2023-03-01T01:26:21;12.03;;;8.10;;
4933;SDS011;2482;49.154;8.254;2023-03-01T01:28:52;12.53;;;8.10;;
4933;SDS011;2482;49.154;8.254;2023-03-01T01:31:20;12.97;;;8.27;;
4933;SDS011;2482;49.154;8.254;2023-03-01T01:33:50;13.90;;;9.03;;
4933;SDS011;2482;49.154;8.254;2023-03-01T01:36:18;11.63;;;7.70;;
4933;SDS011;2482;49.154;8.254;2023-03-01T01:38:46;13.67;;;8.73;;
4933;SDS011;2482;49.154;8.254;2023-03-01T01:41:14;11.63;;;8.00;;
4933;SDS011;2482;49.154;8.254;2023-03-01T01:43:43;17.33;;;8.23;;
4933;SDS011;2482;49.154;8.254;2023-03-01T01:46:30;11.33;;;7.93;;
4933;SDS011;2482;49.154;8.254;2023-03-01T01:49:01;11.63;;;7.23;;
4933;SDS011;2482;49.154;8.254;2023-03-01T01:51:33;16.87;;;8.97;;
4933;SDS011;2482;49.154;8.254;2023-03-01T01:54:10;14.60;;;8.37;;
4933;SDS011;2482;49.154;8.254;2023-03-01T01:56:44;16.40;;;8.53;;
4933;SDS011;2482;49.154;8.254;2023-03-01T01:59:19;14.10;;;8.90;;
4933;SDS011;2482;49.154;8.254;2023-03-01T02:01:51;12.03;;;8.00;;
4933;SDS011;2482;49.154;8.254;2023-03-01T02:04:19;13.57;;;7.67;;
4933;SDS011;2482;49.154;8.254;2023-03-01T02:06:52;11.17;;;8.30;;
4933;SDS011;2482;49.154;8.254;2023-03-01T02:09:47;11.50;;;8.17;;
4933;SDS011;2482;49.154;8.254;2023-03-01T02:12:20;10.90;;;8.20;;
4933;SDS011;2482;49.154;8.254;2023-03-01T02:14:51;11.90;;;7.70;;
4933;SDS011;2482;49.154;8.254;2023-03-01T02:17:18;12.57;;;8.83;;
4933;SDS011;2482;49.154;8.254;2023-03-01T02:22:54;14.43;;;9.13;;
4933;SDS011;2482;49.154;8.254;2023-03-01T02:30:42;14.43;;;8.07;;
4933;SDS011;2482;49.154;8.254;2023-03-01T02:33:31;15.03;;;8.60;;
4933;SDS011;2482;49.154;8.254;2023-03-01T02:36:09;13.87;;;9.10;;
4933;SDS011;2482;49.154;8.254;2023-03-01T02:38:43;12.13;;;7.90;;
4933;SDS011;2482;49.154;8.254;2023-03-01T02:41:11;13.40;;;8.10;;
4933;SDS011;2482;49.154;8.254;2023-03-01T02:43:42;14.63;;;8.00;;
4933;SDS011;2482;49.154;8.254;2023-03-01T02:48:47;11.70;;;8.40;;
4933;SDS011;2482;49.154;8.254;2023-03-01T02:56:47;14.23;;;9.30;;
4933;SDS011;2482;49.154;8.254;2023-03-01T02:59:19;14.33;;;9.37;;
4933;SDS011;2482;49.154;8.254;2023-03-01T03:01:49;14.53;;;8.90;;
4933;SDS011;2482;49.154;8.254;2023-03-01T03:04:17;11.80;;;7.90;;
4933;SDS011;2482;49.154;8.254;2023-03-01T03:06:48;16.80;;;8.50;;
4933;SDS011;2482;49.154;8.254;2023-03-01T03:09:17;12.90;;;9.33;;
4933;SDS011;2482;49.154;8.254;2023-03-01T03:11:44;12.57;;;9.07;;
4933;SDS011;2482;49.154;8.254;2023-03-01T03:14:13;15.90;;;9.53;;
4933;SDS011;2482;49.154;8.254;2023-03-01T03:16:43;14.33;;;9.40;;
4933;SDS011;2482;49.154;8.254;2023-03-01T03:19:13;15.83;;;9.07;;
4933;SDS011;2482;49.154;8.254;2023-03-01T03:21:40;14.63;;;9.30;;
4933;SDS011;2482;49.154;8.254;2023-03-01T03:24:07;15.40;;;9.90;;
4933;SDS011;2482;49.154;8.254;2023-03-01T03:26:34;16.33;;;9.33;;
4933;SDS011;2482;49.154;8.254;2023-03-01T03:29:01;14.67;;;9.80;;
4933;SDS011;2482;49.154;8.254;2023-03-01T03:31:28;15.30;;;9.17;;
4933;SDS011;2482;49.154;8.254;2023-03-01T03:33:55;15.67;;;9.57;;
4933;SDS011;2482;49.154;8.254;2023-03-01T03:36:23;15.17;;;10.20;;
4933;SDS011;2482;49.154;8.254;2023-03-01T03:38:51;16.10;;;9.73;;
4933;SDS011;2482;49.154;8.254;2023-03-01T03:41:18;14.60;;;9.47;;
4933;SDS011;2482;49.154;8.254;2023-03-01T03:43:44;15.17;;;9.73;;
4933;SDS011;2482;49.154;8.254;2023-03-01T03:46:12;14.13;;;9.70;;
4933;SDS011;2482;49.154;8.254;2023-03-01T03:48:41;16.47;;;9.90;;
4933;SDS011;2482;49.154;8.254;2023-03-01T03:51:11;14.87;;;10.00;;
4933;SDS011;2482;49.154;8.254;2023-03-01T03:53:43;15.03;;;9.50;;
4933;SDS011;2482;49.154;8.254;2023-03-01T03:56:11;14.20;;;9.10;;
4933;SDS011;2482;49.154;8.254;2023-03-01T03:58:38;19.70;;;10.53;;
4933;SDS011;2482;49.154;8.254;2023-03-01T04:01:06;19.20;;;9.97;;
4933;SDS011;2482;49.154;8.254;2023-03-01T04:03:33;14.57;;;9.50;;
4933;SDS011;2482;49.154;8.254;2023-03-01T04:06:02;14.13;;;9.73;;
4933;SDS011;2482;49.154;8.254;2023-03-01T04:08:30;17.80;;;9.87;;
4933;SDS011;2482;49.154;8.254;2023-03-01T04:10:59;17.93;;;10.10;;
4933;SDS011;2482;49.154;8.254;2023-03-01T04:13:48;21.77;;;10.40;;
4933;SDS011;2482;49.154;8.254;2023-03-01T04:16:15;12.20;;;8.70;;
4933;SDS011;2482;49.154;8.254;2023-03-01T04:18:44;18.23;;;10.20;;
4933;SDS011;2482;49.154;8.254;2023-03-01T04:21:11;17.73;;;10.70;;
4933;SDS011;2482;49.154;8.254;2023-03-01T04:23:38;16.97;;;10.43;;
4933;SDS011;2482;49.154;8.254;2023-03-01T04:26:07;15.50;;;9.70;;
4933;SDS011;2482;49.154;8.254;2023-03-01T04:28:36;17.20;;;10.77;;
4933;SDS011;2482;49.154;8.254;2023-03-01T04:31:08;16.00;;;10.17;;
4933;SDS011;2482;49.154;8.254;2023-03-01T04:33:42;15.47;;;9.87;;
4933;SDS011;2482;49.154;8.254;2023-03-01T04:36:20;15.27;;;9.53;;
4933;SDS011;2482;49.154;8.254;2023-03-01T04:38:51;17.57;;;11.37;;
4933;SDS011;2482;49.154;8.254;2023-03-01T04:41:19;16.10;;;10.50;;
4933;SDS011;2482;49.154;8.254;2023-03-01T04:43:48;12.77;;;8.80;;
4933;SDS011;2482;49.154;8.254;2023-03-01T04:46:18;18.90;;;11.03;;
4933;SDS011;2482;49.154;8.254;2023-03-01T04:48:46;13.50;;;9.60;;
4933;SDS011;2482;49.154;8.254;2023-03-01T04:51:13;16.83;;;11.00;;
4933;SDS011;2482;49.154;8.254;2023-03-01T04:53:42;17.43;;;10.87;;
4933;SDS011;2482;49.154;8.254;2023-03-01T04:56:10;19.97;;;10.90;;
4933;SDS011;2482;49.154;8.254;2023-03-01T04:58:40;16.07;;;9.80;;
4933;SDS011;2482;49.154;8.254;2023-03-01T05:01:08;15.70;;;9.67;;
4933;SDS011;2482;49.154;8.254;2023-03-01T05:03:43;20.63;;;10.90;;
4933;SDS011;2482;49.154;8.254;2023-03-01T05:06:15;14.97;;;10.47;;
4933;SDS011;2482;49.154;8.254;2023-03-01T05:08:44;16.07;;;10.10;;
4933;SDS011;2482;49.154;8.254;2023-03-01T05:11:11;14.67;;;9.80;;
4933;SDS011;2482;49.154;8.254;2023-03-01T05:13:38;20.70;;;9.80;;
4933;SDS011;2482;49.154;8.254;2023-03-01T05:16:06;18.20;;;11.53;;
4933;SDS011;2482;49.154;8.254;2023-03-01T05:18:38;20.33;;;11.63;;
4933;SDS011;2482;49.154;8.254;2023-03-01T05:21:08;16.70;;;10.73;;
4933;SDS011;2482;49.154;8.254;2023-03-01T05:23:42;18.40;;;11.70;;
4933;SDS011;2482;49.154;8.254;2023-03-01T05:26:10;19.20;;;10.70;;
4933;SDS011;2482;49.154;8.254;2023-03-01T05:28:53;16.13;;;10.87;;
4933;SDS011;2482;49.154;8.254;2023-03-01T05:31:25;16.43;;;10.27;;
4933;SDS011;2482;49.154;8.254;2023-03-01T05:33:52;23.40;;;11.73;;
4933;SDS011;2482;49.154;8.254;2023-03-01T05:36:19;18.47;;;10.97;;
4933;SDS011;2482;49.154;8.254;2023-03-01T05:38:46;21.53;;;11.43;;
4933;SDS011;2482;49.154;8.254;2023-03-01T05:41:14;14.87;;;10.67;;
4933;SDS011;2482;49.154;8.254;2023-03-01T05:43:43;17.37;;;10.50;;
4933;SDS011;2482;49.154;8.254;2023-03-01T05:46:11;18.27;;;11.73;;
4933;SDS011;2482;49.154;8.254;2023-03-01T05:48:39;21.73;;;11.30;;
4933;SDS011;2482;49.154;8.254;2023-03-01T05:51:06;15.90;;;10.03;;
4933;SDS011;2482;49.154;8.254;2023-03-01T05:53:34;15.83;;;9.97;;
4933;SDS011;2482;49.154;8.254;2023-03-01T05:56:04;19.47;;;11.50;;
4933;SDS011;2482;49.154;8.254;2023-03-01T05:58:32;19.87;;;10.90;;
4933;SDS011;2482;49.154;8.254;2023-03-01T06:00:59;19.30;;;11.97;;
4933;SDS011;2482;49.154;8.254;2023-03-01T06:03:26;17.47;;;11.10;;
4933;SDS011;2482;49.154;8.254;2023-03-01T06:05:56;16.73;;;10.73;;
4933;SDS011;2482;49.154;8.254;2023-03-01T06:08:24;16.80;;;10.73;;
4933;SDS011;2482;49.154;8.254;2023-03-01T06:10:53;23.07;;;12.37;;
4933;SDS011;2482;49.154;8.254;2023-03-01T06:13:20;17.50;;;11.07;;
4933;SDS011;2482;49.154;8.254;2023-03-01T06:15:48;22.40;;;12.03;;
4933;SDS011;2482;49.154;8.254;2023-03-01T06:18:15;18.30;;;9.40;;
4933;SDS011;2482;49.154;8.254;2023-03-01T06:20:42;17.70;;;10.57;;
4933;SDS011;2482;49.154;8.254;2023-03-01T06:23:09;21.13;;;12.50;;
4933;SDS011;2482;49.154;8.254;2023-03-01T06:25:36;22.50;;;11.33;;
4933;SDS011;2482;49.154;8.254;2023-03-01T06:28:03;20.90;;;12.70;;
4933;SDS011;2482;49.154;8.254;2023-03-01T06:30:30;22.60;;;12.63;;
4933;SDS011;2482;49.154;8.254;2023-03-01T06:32:58;17.47;;;11.77;;
4933;SDS011;2482;49.154;8.254;2023-03-01T06:35:27;19.33;;;11.93;;
4933;SDS011;2482;49.154;8.254;2023-03-01T06:37:59;18.57;;;11.43;;
4933;SDS011;2482;49.154;8.254;2023-03-01T06:40:28;18.00;;;11.40;;
4933;SDS011;2482;49.154;8.254;2023-03-01T06:42:57;20.53;;;11.17;;
4933;SDS011;2482;49.154;8.254;2023-03-01T06:45:25;21.60;;;11.90;;
4933;SDS011;2482;49.154;8.254;2023-03-01T06:47:52;26.43;;;11.60;;
4933;SDS011;2482;49.154;8.254;2023-03-01T06:50:27;18.80;;;11.13;;
4933;SDS011;2482;49.154;8.254;2023-03-01T06:52:57;20.03;;;11.40;;
4933;SDS011;2482;49.154;8.254;2023-03-01T06:55:25;19.00;;;11.70;;
4933;SDS011;2482;49.154;8.254;2023-03-01T06:57:58;19.13;;;11.60;;
4933;SDS011;2482;49.154;8.254;2023-03-01T07:00:28;19.90;;;11.50;;
4933;SDS011;2482;49.154;8.254;2023-03-01T07:02:58;19.17;;;11.40;;
4933;SDS011;2482;49.154;8.254;2023-03-01T07:05:28;20.80;;;12.30;;
4933;SDS011;2482;49.154;8.254;2023-03-01T07:07:56;21.40;;;12.53;;
4933;SDS011;2482;49.154;8.254;2023-03-01T07:10:23;20.23;;;12.23;;
4933;SDS011;2482;49.154;8.254;2023-03-01T07:12:53;20.60;;;12.97;;
4933;SDS011;2482;49.154;8.254;2023-03-01T07:15:22;19.77;;;12.10;;
4933;SDS011;2482;49.154;8.254;2023-03-01T07:17:49;21.90;;;12.30;;
4933;SDS011;2482;49.154;8.254;2023-03-01T07:20:20;22.47;;;12.80;;
4933;SDS011;2482;49.154;8.254;2023-03-01T07:22:52;18.37;;;12.73;;
4933;SDS011;2482;49.154;8.254;2023-03-01T07:25:21;21.80;;;11.83;;
4933;SDS011;2482;49.154;8.254;2023-03-01T07:27:49;18.50;;;11.40;;
4933;SDS011;2482;49.154;8.254;2023-03-01T07:30:20;20.37;;;12.70;;
4933;SDS011;2482;49.154;8.254;2023-03-01T07:32:47;22.13;;;12.70;;
4933;SDS011;2482;49.154;8.254;2023-03-01T07:35:14;20.53;;;12.20;;
4933;SDS011;2482;49.154;8.254;2023-03-01T07:37:41;18.60;;;12.00;;
4933;SDS011;2482;49.154;8.254;2023-03-01T07:40:09;19.13;;;11.60;;
4933;SDS011;2482;49.154;8.254;2023-03-01T07:42:37;23.50;;;14.40;;
4933;SDS011;2482;49.154;8.254;2023-03-01T07:45:05;22.07;;;12.57;;
4933;SDS011;2482;49.154;8.254;2023-03-01T07:47:33;24.70;;;13.83;;
4933;SDS011;2482;49.154;8.254;2023-03-01T07:50:00;20.33;;;13.37;;
4933;SDS011;2482;49.154;8.254;2023-03-01T07:52:28;20.40;;;11.90;;
4933;SDS011;2482;49.154;8.254;2023-03-01T07:54:57;21.60;;;12.37;;
4933;SDS011;2482;49.154;8.254;2023-03-01T07:57:24;18.37;;;12.20;;
4933;SDS011;2482;49.154;8.254;2023-03-01T07:59:51;21.27;;;12.20;;
4933;SDS011;2482;49.154;8.254;2023-03-01T08:02:18;17.70;;;12.37;;
4933;SDS011;2482;49.154;8.254;2023-03-01T08:04:45;21.00;;;12.80;;
4933;SDS011;2482;49.154;8.254;2023-03-01T08:07:12;20.33;;;12.87;;
4933;SDS011;2482;49.154;8.254;2023-03-01T08:09:39;21.00;;;12.47;;
4933;SDS011;2482;49.154;8.254;2023-03-01T08:12:06;19.00;;;12.73;;
4933;SDS011;2482;49.154;8.254;2023-03-01T08:14:33;22.83;;;13.27;;
4933;SDS011;2482;49.154;8.254;2023-03-01T08:17:00;24.43;;;14.10;;
4933;SDS011;2482;49.154;8.254;2023-03-01T08:19:30;22.03;;;13.00;;
4933;SDS011;2482;49.154;8.254;2023-03-01T08:21:57;18.70;;;12.67;;
4933;SDS011;2482;49.154;8.254;2023-03-01T08:24:24;23.53;;;12.30;;
4933;SDS011;2482;49.154;8.254;2023-03-01T08:26:52;22.03;;;12.80;;
4933;SDS011;2482;49.154;8.254;2023-03-01T08:29:19;20.07;;;12.47;;
4933;SDS011;2482;49.154;8.254;2023-03-01T08:31:46;20.10;;;13.20;;
4933;SDS011;2482;49.154;8.254;2023-03-01T08:34:15;18.87;;;12.20;;
4933;SDS011;2482;49.154;8.254;2023-03-01T08:36:44;20.63;;;13.10;;
4933;SDS011;2482;49.154;8.254;2023-03-01T08:39:14;22.20;;;14.10;;
4933;SDS011;2482;49.154;8.254;2023-03-01T08:41:43;20.20;;;13.80;;
4933;SDS011;2482;49.154;8.254;2023-03-01T08:44:13;21.73;;;12.30;;
4933;SDS011;2482;49.154;8.254;2023-03-01T08:46:43;18.07;;;12.60;;
4933;SDS011;2482;49.154;8.254;2023-03-01T08:49:13;23.27;;;13.80;;
4933;SDS011;2482;49.154;8.254;2023-03-01T08:51:43;23.53;;;12.90;;
4933;SDS011;2482;49.154;8.254;2023-03-01T08:54:13;19.00;;;12.60;;
4933;SDS011;2482;49.154;8.254;2023-03-01T08:56:42;21.43;;;13.70;;
4933;SDS011;2482;49.154;8.254;2023-03-01T08:59:10;20.57;;;12.60;;
4933;SDS011;2482;49.154;8.254;2023-03-01T09:01:39;21.53;;;12.80;;
4933;SDS011;2482;49.154;8.254;2023-03-01T09:04:10;22.33;;;13.70;;
4933;SDS011;2482;49.154;8.254;2023-03-01T09:06:38;23.50;;;14.37;;
4933;SDS011;2482;49.154;8.254;2023-03-01T09:09:06;21.93;;;14.30;;
4933;SDS011;2482;49.154;8.254;2023-03-01T09:11:42;24.03;;;14.90;;
4933;SDS011;2482;49.154;8.254;2023-03-01T09:14:13;22.37;;;13.20;;
4933;SDS011;2482;49.154;8.254;2023-03-01T09:16:40;22.03;;;13.53;;
4933;SDS011;2482;49.154;8.254;2023-03-01T09:19:08;21.17;;;14.30;;
4933;SDS011;2482;49.154;8.254;2023-03-01T09:21:35;20.13;;;13.20;;
4933;SDS011;2482;49.154;8.254;2023-03-01T09:24:08;22.73;;;14.60;;
4933;SDS011;2482;49.154;8.254;2023-03-01T09:26:40;21.97;;;14.47;;
4933;SDS011;2482;49.154;8.254;2023-03-01T09:29:07;23.67;;;12.80;;
4933;SDS011;2482;49.154;8.254;2023-03-01T09:31:36;20.30;;;13.73;;
4933;SDS011;2482;49.154;8.254;2023-03-01T09:34:03;23.60;;;13.40;;
4933;SDS011;2482;49.154;8.254;2023-03-01T09:36:33;20.03;;;13.97;;
4933;SDS011;2482;49.154;8.254;2023-03-01T09:39:01;20.67;;;13.23;;
4933;SDS011;2482;49.154;8.254;2023-03-01T09:44:19;22.43;;;14.30;;
4933;SDS011;2482;49.154;8.254;2023-03-01T09:47:21;21.10;;;14.20;;
4933;SDS011;2482;49.154;8.254;2023-03-01T09:55:36;22.90;;;14.17;;
4933;SDS011;2482;49.154;8.254;2023-03-01T10:01:10;22.83;;;13.80;;
4933;SDS011;2482;49.154;8.254;2023-03-01T10:04:08;18.87;;;12.37;;
4933;SDS011;2482;49.154;8.254;2023-03-01T10:09:43;19.27;;;12.97;;
4933;SDS011;2482;49.154;8.254;2023-03-01T10:12:19;18.90;;;12.73;;
4933;SDS011;2482;49.154;8.254;2023-03-01T10:14:53;20.50;;;13.47;;
4933;SDS011;2482;49.154;8.254;2023-03-01T10:17:46;20.30;;;14.47;;
4933;SDS011;2482;49.154;8.254;2023-03-01T10:22:52;19.60;;;13.67;;
4933;SDS011;2482;49.154;8.254;2023-03-01T10:31:25;22.90;;;14.17;;
4933;SDS011;2482;49.154;8.254;2023-03-01T10:34:46;19.10;;;13.33;;
4933;SDS011;2482;49.154;8.254;2023-03-01T10:37:16;23.07;;;14.60;;
4933;SDS011;2482;49.154;8.254;2023-03-01T10:40:08;29.20;;;14.50;;
4933;SDS011;2482;49.154;8.254;2023-03-01T10:42:38;22.43;;;12.97;;
4933;SDS011;2482;49.154;8.254;2023-03-01T10:48:25;23.00;;;14.20;;
4933;SDS011;2482;49.154;8.254;2023-03-01T10:53:34;22.87;;;15.27;;
4933;SDS011;2482;49.154;8.254;2023-03-01T10:56:12;20.67;;;13.27;;
4933;SDS011;2482;49.154;8.254;2023-03-01T10:58:56;21.87;;;14.87;;
4933;SDS011;2482;49.154;8.254;2023-03-01T11:06:35;21.37;;;13.93;;
4933;SDS011;2482;49.154;8.254;2023-03-01T11:09:20;23.57;;;14.03;;
4933;SDS011;2482;49.154;8.254;2023-03-01T11:11:53;22.53;;;16.43;;
4933;SDS011;2482;49.154;8.254;2023-03-01T11:14:23;19.87;;;14.03;;
4933;SDS011;2482;49.154;8.254;2023-03-01T11:17:36;22.60;;;15.10;;
4933;SDS011;2482;49.154;8.254;2023-03-01T11:22:53;24.17;;;15.67;;
4933;SDS011;2482;49.154;8.254;2023-03-01T11:25:26;25.20;;;15.70;;
4933;SDS011;2482;49.154;8.254;2023-03-01T11:28:03;22.13;;;14.43;;
4933;SDS011;2482;49.154;8.254;2023-03-01T11:30:39;19.60;;;13.47;;
4933;SDS011;2482;49.154;8.254;2023-03-01T11:36:34;19.33;;;13.50;;
4933;SDS011;2482;49.154;8.254;2023-03-01T11:39:18;22.83;;;13.57;;
4933;SDS011;2482;49.154;8.254;2023-03-01T11:42:15;22.47;;;14.40;;
4933;SDS011;2482;49.154;8.254;2023-03-01T11:44:48;20.30;;;13.30;;
4933;SDS011;2482;49.154;8.254;2023-03-01T11:50:29;19.67;;;13.40;;
4933;SDS011;2482;49.154;8.254;2023-03-01T11:53:34;19.97;;;13.53;;
4933;SDS011;2482;49.154;8.254;2023-03-01T11:56:24;19.90;;;13.97;;
4933;SDS011;2482;49.154;8.254;2023-03-01T12:02:10;19.20;;;13.83;;
4933;SDS011;2482;49.154;8.254;2023-03-01T12:08:11;20.13;;;13.73;;
4933;SDS011;2482;49.154;8.254;2023-03-01T12:19:50;18.63;;;13.30;;
4933;SDS011;2482;49.154;8.254;2023-03-01T12:31:50;20.43;;;13.47;;
4933;SDS011;2482;49.154;8.254;2023-03-01T12:51:39;16.83;;;11.63;;
4933;SDS011;2482;49.154;8.254;2023-03-01T12:54:27;21.60;;;13.67;;
4933;SDS011;2482;49.154;8.254;2023-03-01T12:56:59;18.77;;;12.73;;
4933;SDS011;2482;49.154;8.254;2023-03-01T12:59:42;18.60;;;13.93;;
4933;SDS011;2482;49.154;8.254;2023-03-01T13:03:00;19.20;;;12.77;;
4933;SDS011;2482;49.154;8.254;2023-03-01T13:11:00;19.00;;;12.70;;
4933;SDS011;2482;49.154;8.254;2023-03-01T13:13:30;21.90;;;14.10;;
4933;SDS011;2482;49.154;8.254;2023-03-01T13:16:16;19.10;;;13.60;;
4933;SDS011;2482;49.154;8.254;2023-03-01T13:19:12;18.90;;;13.90;;
4933;SDS011;2482;49.154;8.254;2023-03-01T13:21:43;17.50;;;12.90;;
4933;SDS011;2482;49.154;8.254;2023-03-01T13:29:44;23.37;;;13.90;;
4933;SDS011;2482;49.154;8.254;2023-03-01T13:32:30;24.13;;;15.13;;
4933;SDS011;2482;49.154;8.254;2023-03-01T13:37:46;20.53;;;13.33;;
4933;SDS011;2482;49.154;8.254;2023-03-01T13:42:47;21.10;;;12.77;;
4933;SDS011;2482;49.154;8.254;2023-03-01T13:45:40;21.30;;;14.73;;
4933;SDS011;2482;49.154;8.254;2023-03-01T13:48:11;20.67;;;13.90;;
4933;SDS011;2482;49.154;8.254;2023-03-01T13:50:59;27.60;;;14.17;;
4933;SDS011;2482;49.154;8.254;2023-03-01T13:53:35;17.23;;;13.07;;
4933;SDS011;2482;49.154;8.254;2023-03-01T13:56:09;21.10;;;13.70;;
4933;SDS011;2482;49.154;8.254;2023-03-01T13:58:59;23.13;;;13.20;;
4933;SDS011;2482;49.154;8.254;2023-03-01T14:01:32;21.23;;;14.73;;
4933;SDS011;2482;49.154;8.254;2023-03-01T14:04:03;22.77;;;15.17;;
4933;SDS011;2482;49.154;8.254;2023-03-01T14:06:49;19.03;;;13.50;;
4933;SDS011;2482;49.154;8.254;2023-03-01T14:09:18;17.83;;;12.93;;
4933;SDS011;2482;49.154;8.254;2023-03-01T14:14:48;26.17;;;13.67;;
4933;SDS011;2482;49.154;8.254;2023-03-01T14:17:37;20.57;;;13.33;;
4933;SDS011;2482;49.154;8.254;2023-03-01T14:20:44;18.00;;;13.23;;
4933;SDS011;2482;49.154;8.254;2023-03-01T14:23:18;16.97;;;12.47;;
4933;SDS011;2482;49.154;8.254;2023-03-01T14:25:51;20.63;;;13.43;;
4933;SDS011;2482;49.154;8.254;2023-03-01T14:28:24;19.93;;;14.30;;
4933;SDS011;2482;49.154;8.254;2023-03-01T14:30:56;22.17;;;13.50;;
4933;SDS011;2482;49.154;8.254;2023-03-01T14:33:29;20.83;;;13.43;;
4933;SDS011;2482;49.154;8.254;2023-03-01T14:36:00;17.70;;;12.37;;
4933;SDS011;2482;49.154;8.254;2023-03-01T14:38:39;19.27;;;13.57;;
4933;SDS011;2482;49.154;8.254;2023-03-01T14:41:16;22.43;;;13.30;;
4933;SDS011;2482;49.154;8.254;2023-03-01T14:43:48;24.53;;;13.70;;
4933;SDS011;2482;49.154;8.254;2023-03-01T14:46:43;19.90;;;12.90;;
4933;SDS011;2482;49.154;8.254;2023-03-01T14:49:15;16.67;;;12.07;;
4933;SDS011;2482;49.154;8.254;2023-03-01T14:51:53;18.10;;;13.30;;
4933;SDS011;2482;49.154;8.254;2023-03-01T15:00:10;18.80;;;12.80;;
4933;SDS011;2482;49.154;8.254;2023-03-01T15:02:55;15.60;;;10.80;;
4933;SDS011;2482;49.154;8.254;2023-03-01T15:05:29;15.30;;;11.17;;
4933;SDS011;2482;49.154;8.254;2023-03-01T15:08:00;15.87;;;11.57;;
4933;SDS011;2482;49.154;8.254;2023-03-01T15:10:31;16.17;;;11.20;;
4933;SDS011;2482;49.154;8.254;2023-03-01T15:13:12;17.57;;;11.53;;
4933;SDS011;2482;49.154;8.254;2023-03-01T15:15:48;15.40;;;10.83;;
4933;SDS011;2482;49.154;8.254;2023-03-01T15:18:21;18.90;;;11.40;;
4933;SDS011;2482;49.154;8.254;2023-03-01T15:20:53;16.50;;;11.77;;
4933;SDS011;2482;49.154;8.254;2023-03-01T15:23:25;13.80;;;10.43;;
4933;SDS011;2482;49.154;8.254;2023-03-01T15:25:54;13.57;;;11.00;;
4933;SDS011;2482;49.154;8.254;2023-03-01T15:28:26;14.47;;;10.37;;
4933;SDS011;2482;49.154;8.254;2023-03-01T15:33:48;17.70;;;12.20;;
4933;SDS011;2482;49.154;8.254;2023-03-01T15:36:32;16.03;;;9.97;;
4933;SDS011;2482;49.154;8.254;2023-03-01T15:38:59;18.13;;;10.93;;
4933;SDS011;2482;49.154;8.254;2023-03-01T15:41:31;19.17;;;11.30;;
4933;SDS011;2482;49.154;8.254;2023-03-01T15:44:14;16.20;;;11.40;;
4933;SDS011;2482;49.154;8.254;2023-03-01T15:46:45;16.03;;;12.20;;
4933;SDS011;2482;49.154;8.254;2023-03-01T15:52:24;15.60;;;12.27;;
4933;SDS011;2482;49.154;8.254;2023-03-01T15:55:06;17.67;;;12.77;;
4933;SDS011;2482;49.154;8.254;2023-03-01T16:00:38;16.13;;;11.60;;
4933;SDS011;2482;49.154;8.254;2023-03-01T16:03:19;17.10;;;11.43;;
4933;SDS011;2482;49.154;8.254;2023-03-01T16:05:48;15.37;;;12.17;;
4933;SDS011;2482;49.154;8.254;2023-03-01T16:08:16;19.33;;;12.73;;
4933;SDS011;2482;49.154;8.254;2023-03-01T16:10:45;18.27;;;13.20;;
4933;SDS011;2482;49.154;8.254;2023-03-01T16:13:14;19.03;;;12.67;;
4933;SDS011;2482;49.154;8.254;2023-03-01T16:15:41;18.53;;;12.97;;
4933;SDS011;2482;49.154;8.254;2023-03-01T16:18:08;18.70;;;13.23;;
4933;SDS011;2482;49.154;8.254;2023-03-01T16:20:37;17.37;;;12.50;;
4933;SDS011;2482;49.154;8.254;2023-03-01T16:23:06;19.93;;;11.80;;
4933;SDS011;2482;49.154;8.254;2023-03-01T16:25:35;17.20;;;12.80;;
4933;SDS011;2482;49.154;8.254;2023-03-01T16:28:02;18.23;;;12.50;;
4933;SDS011;2482;49.154;8.254;2023-03-01T16:30:35;16.70;;;11.57;;
4933;SDS011;2482;49.154;8.254;2023-03-01T16:33:06;16.30;;;11.90;;
4933;SDS011;2482;49.154;8.254;2023-03-01T16:35:55;19.13;;;12.70;;
4933;SDS011;2482;49.154;8.254;2023-03-01T16:38:22;19.53;;;12.70;;
4933;SDS011;2482;49.154;8.254;2023-03-01T16:40:49;16.70;;;11.87;;
4933;SDS011;2482;49.154;8.254;2023-03-01T16:43:18;21.70;;;12.30;;
4933;SDS011;2482;49.154;8.254;2023-03-01T16:45:45;16.20;;;11.17;;
4933;SDS011;2482;49.154;8.254;2023-03-01T16:48:13;16.57;;;11.40;;
4933;SDS011;2482;49.154;8.254;2023-03-01T16:50:40;19.60;;;12.00;;
4933;SDS011;2482;49.154;8.254;2023-03-01T16:53:07;19.80;;;12.23;;
4933;SDS011;2482;49.154;8.254;2023-03-01T16:55:35;17.67;;;11.93;;
4933;SDS011;2482;49.154;8.254;2023-03-01T16:58:02;19.33;;;11.60;;
4933;SDS011;2482;49.154;8.254;2023-03-01T17:00:30;15.70;;;11.23;;
4933;SDS011;2482;49.154;8.254;2023-03-01T17:02:57;17.40;;;12.10;;
4933;SDS011;2482;49.154;8.254;2023-03-01T17:05:24;18.57;;;12.73;;
4933;SDS011;2482;49.154;8.254;2023-03-01T17:07:52;16.60;;;11.50;;
4933;SDS011;2482;49.154;8.254;2023-03-01T17:10:21;16.13;;;10.83;;
4933;SDS011;2482;49.154;8.254;2023-03-01T17:12:49;17.37;;;11.73;;
4933;SDS011;2482;49.154;8.254;2023-03-01T17:15:16;19.80;;;12.67;;
4933;SDS011;2482;49.154;8.254;2023-03-01T17:17:44;21.90;;;12.90;;
4933;SDS011;2482;49.154;8.254;2023-03-01T17:20:11;16.23;;;12.50;;
4933;SDS011;2482;49.154;8.254;2023-03-01T17:22:38;19.93;;;11.83;;
4933;SDS011;2482;49.154;8.254;2023-03-01T17:25:07;16.93;;;11.67;;
4933;SDS011;2482;49.154;8.254;2023-03-01T17:27:38;20.93;;;11.93;;
4933;SDS011;2482;49.154;8.254;2023-03-01T17:30:07;17.80;;;11.90;;
4933;SDS011;2482;49.154;8.254;2023-03-01T17:32:36;20.53;;;12.30;;
4933;SDS011;2482;49.154;8.254;2023-03-01T17:35:03;18.27;;;11.50;;